ハバロフスク の空港の天気 - METARとTAF

ハバロフスク空港 ( UHHH / KHV ) - ロシア ハバロフスク
飛行場実況気象(Metar)
観測時間04/22 02:30 VLAT (04/21 16:30 UTC)
風向・風速西 2m/s
視程10km以上
天気現象
なし
気温2℃
湿度38%
気圧1012hPa
METARUHHH 211630Z 28002MPS CAVOK 02/M11 Q1012 R23L/090060 NOSIG RMK QFE752/1003
過去の天気等 Google飛行場航空写真 Wunderground天気予報

過去48時間のMETAR

飛行場予報(TAF)
発表時間: 4/21 23:49 VLAT (4/21 13:49 UTC)
予報対象時間: 22日1時 VLAT ~ 23日7時 VLAT
風向・風速西 5m/s
視程10km以上
なし
22日9時 VLAT ~ 22日16時 VLAT に一時的に
風向・風速西 7m/s 瞬間風速 12m/s
TAF UHHH 211349Z 2115/2221 28005MPS CAVOK
TEMPO 2123/2206 28007G12MPS